Terminal Aerodrome Forecast
Issued by NWS

Home | Current Version | Previous Version | Text Only | Print | Product List | Glossary On
Versions: 1 2 3 4 5 6 7 8 9 10 11 12 13 14 15 16 17 18 19 20 21 22 23 24 25 26 27 28 29 30 31 32 33 34
000
FTUS46 KLOX 231400 AAA
TAFLAX
TAF AMD
KLAX 231432Z 2315/2418 00000KT P6SM FEW250
     FM231900 26012KT P6SM SKC
     FM240300 25006KT P6SM SKC
     FM240800 VRB03KT P6SM SKC
     FM241700 26008KT P6SM SKC=

USA.gov is the U.S. government's official web portal to all federal, state and local government web resources and services.